sensor_id;sensor_type;location;lat;lon;timestamp;temperature;humidity
42615;DHT22;28754;47.700;7.924;2022-10-16T00:02:21;13.70;99.90
42615;DHT22;28754;47.700;7.924;2022-10-16T00:05:07;13.70;99.90
42615;DHT22;28754;47.700;7.924;2022-10-16T00:07:54;13.70;99.90
42615;DHT22;28754;47.700;7.924;2022-10-16T00:10:41;13.80;99.90
42615;DHT22;28754;47.700;7.924;2022-10-16T00:13:27;13.70;99.90
42615;DHT22;28754;47.700;7.924;2022-10-16T00:16:17;13.80;99.90
42615;DHT22;28754;47.700;7.924;2022-10-16T00:19:05;13.80;99.90
42615;DHT22;28754;47.700;7.924;2022-10-16T00:21:51;13.80;99.90
42615;DHT22;28754;47.700;7.924;2022-10-16T00:24:38;13.80;99.90
42615;DHT22;28754;47.700;7.924;2022-10-16T00:27:25;13.80;99.90
42615;DHT22;28754;47.700;7.924;2022-10-16T00:30:11;13.80;99.90
42615;DHT22;28754;47.700;7.924;2022-10-16T00:32:58;13.80;99.90
42615;DHT22;28754;47.700;7.924;2022-10-16T00:35:45;13.80;99.90
42615;DHT22;28754;47.700;7.924;2022-10-16T00:38:32;13.90;99.90
42615;DHT22;28754;47.700;7.924;2022-10-16T00:41:20;13.80;99.90
42615;DHT22;28754;47.700;7.924;2022-10-16T00:47:46;13.70;99.90
42615;DHT22;28754;47.700;7.924;2022-10-16T00:50:36;13.80;99.90
42615;DHT22;28754;47.700;7.924;2022-10-16T00:53:25;13.80;99.90
42615;DHT22;28754;47.700;7.924;2022-10-16T00:56:12;13.70;99.90
42615;DHT22;28754;47.700;7.924;2022-10-16T00:58:59;13.70;99.90
42615;DHT22;28754;47.700;7.924;2022-10-16T01:01:50;13.70;99.90
42615;DHT22;28754;47.700;7.924;2022-10-16T01:05:01;13.70;99.90
42615;DHT22;28754;47.700;7.924;2022-10-16T01:08:08;13.70;99.90
42615;DHT22;28754;47.700;7.924;2022-10-16T01:18:02;13.60;99.90
42615;DHT22;28754;47.700;7.924;2022-10-16T01:21:08;13.60;99.90
42615;DHT22;28754;47.700;7.924;2022-10-16T01:24:03;13.50;99.90
42615;DHT22;28754;47.700;7.924;2022-10-16T01:27:16;13.50;99.90
42615;DHT22;28754;47.700;7.924;2022-10-16T01:30:17;13.50;99.90
42615;DHT22;28754;47.700;7.924;2022-10-16T01:33:19;13.50;99.90
42615;DHT22;28754;47.700;7.924;2022-10-16T01:36:21;13.40;99.90
42615;DHT22;28754;47.700;7.924;2022-10-16T01:39:13;13.40;99.90
42615;DHT22;28754;47.700;7.924;2022-10-16T01:42:16;13.50;99.90
42615;DHT22;28754;47.700;7.924;2022-10-16T01:45:07;13.40;99.90
42615;DHT22;28754;47.700;7.924;2022-10-16T01:47:58;13.40;99.90
42615;DHT22;28754;47.700;7.924;2022-10-16T01:51:16;13.40;99.90
42615;DHT22;28754;47.700;7.924;2022-10-16T01:54:07;13.30;99.90
42615;DHT22;28754;47.700;7.924;2022-10-16T01:56:56;13.30;99.90
42615;DHT22;28754;47.700;7.924;2022-10-16T01:59:51;13.30;99.90
42615;DHT22;28754;47.700;7.924;2022-10-16T02:07:07;13.40;99.90
42615;DHT22;28754;47.700;7.924;2022-10-16T02:09:55;13.40;99.90
42615;DHT22;28754;47.700;7.924;2022-10-16T02:12:57;13.40;99.90
42615;DHT22;28754;47.700;7.924;2022-10-16T02:15:48;13.30;99.90
42615;DHT22;28754;47.700;7.924;2022-10-16T02:18:35;13.30;99.90
42615;DHT22;28754;47.700;7.924;2022-10-16T02:24:54;13.30;99.90
42615;DHT22;28754;47.700;7.924;2022-10-16T02:28:00;13.20;99.90
42615;DHT22;28754;47.700;7.924;2022-10-16T02:31:08;13.20;99.90
42615;DHT22;28754;47.700;7.924;2022-10-16T02:33:58;13.20;99.90
42615;DHT22;28754;47.700;7.924;2022-10-16T02:36:48;13.20;99.90
42615;DHT22;28754;47.700;7.924;2022-10-16T02:39:38;13.20;99.90
42615;DHT22;28754;47.700;7.924;2022-10-16T02:42:33;13.20;99.90
42615;DHT22;28754;47.700;7.924;2022-10-16T02:45:22;13.30;99.90
42615;DHT22;28754;47.700;7.924;2022-10-16T02:48:09;13.30;99.90
42615;DHT22;28754;47.700;7.924;2022-10-16T02:50:56;13.40;99.90
42615;DHT22;28754;47.700;7.924;2022-10-16T02:53:43;13.40;99.90
42615;DHT22;28754;47.700;7.924;2022-10-16T02:56:30;13.40;99.90
42615;DHT22;28754;47.700;7.924;2022-10-16T02:59:17;13.40;99.90
42615;DHT22;28754;47.700;7.924;2022-10-16T03:02:04;13.40;99.90
42615;DHT22;28754;47.700;7.924;2022-10-16T03:04:50;13.40;99.90
42615;DHT22;28754;47.700;7.924;2022-10-16T03:07:37;13.30;99.90
42615;DHT22;28754;47.700;7.924;2022-10-16T03:10:24;13.30;99.90
42615;DHT22;28754;47.700;7.924;2022-10-16T03:13:10;13.40;99.90
42615;DHT22;28754;47.700;7.924;2022-10-16T03:15:57;13.40;99.90
42615;DHT22;28754;47.700;7.924;2022-10-16T03:18:48;13.40;99.90
42615;DHT22;28754;47.700;7.924;2022-10-16T03:21:36;13.40;99.90
42615;DHT22;28754;47.700;7.924;2022-10-16T03:24:22;13.40;99.90
42615;DHT22;28754;47.700;7.924;2022-10-16T03:27:09;13.50;99.90
42615;DHT22;28754;47.700;7.924;2022-10-16T03:29:56;13.50;99.90
42615;DHT22;28754;47.700;7.924;2022-10-16T03:32:44;13.60;99.90
42615;DHT22;28754;47.700;7.924;2022-10-16T03:35:31;13.70;99.90
42615;DHT22;28754;47.700;7.924;2022-10-16T03:38:19;13.70;99.90
42615;DHT22;28754;47.700;7.924;2022-10-16T03:41:07;13.70;99.90
42615;DHT22;28754;47.700;7.924;2022-10-16T03:43:54;13.70;99.90
42615;DHT22;28754;47.700;7.924;2022-10-16T03:46:40;13.70;99.90
42615;DHT22;28754;47.700;7.924;2022-10-16T03:49:27;13.70;99.90
42615;DHT22;28754;47.700;7.924;2022-10-16T03:52:14;13.80;99.90
42615;DHT22;28754;47.700;7.924;2022-10-16T03:55:00;13.90;99.90
42615;DHT22;28754;47.700;7.924;2022-10-16T03:57:47;13.90;99.90
42615;DHT22;28754;47.700;7.924;2022-10-16T04:05:06;13.90;99.90
42615;DHT22;28754;47.700;7.924;2022-10-16T04:07:53;13.90;99.90
42615;DHT22;28754;47.700;7.924;2022-10-16T04:10:44;13.90;99.90
42615;DHT22;28754;47.700;7.924;2022-10-16T04:13:31;13.90;99.90
42615;DHT22;28754;47.700;7.924;2022-10-16T04:16:17;13.80;99.90
42615;DHT22;28754;47.700;7.924;2022-10-16T04:19:04;13.80;99.90
42615;DHT22;28754;47.700;7.924;2022-10-16T04:21:51;13.80;99.90
42615;DHT22;28754;47.700;7.924;2022-10-16T04:24:37;13.90;99.90
42615;DHT22;28754;47.700;7.924;2022-10-16T04:27:24;13.90;99.90
42615;DHT22;28754;47.700;7.924;2022-10-16T04:30:11;14.00;99.90
42615;DHT22;28754;47.700;7.924;2022-10-16T04:32:58;13.90;99.90
42615;DHT22;28754;47.700;7.924;2022-10-16T04:35:45;14.00;99.90
42615;DHT22;28754;47.700;7.924;2022-10-16T04:38:31;14.00;99.90
42615;DHT22;28754;47.700;7.924;2022-10-16T04:41:18;14.00;99.90
42615;DHT22;28754;47.700;7.924;2022-10-16T04:44:05;14.10;99.90
42615;DHT22;28754;47.700;7.924;2022-10-16T04:46:51;14.10;99.90
42615;DHT22;28754;47.700;7.924;2022-10-16T04:49:38;14.10;99.90
42615;DHT22;28754;47.700;7.924;2022-10-16T04:52:25;14.10;99.90
42615;DHT22;28754;47.700;7.924;2022-10-16T04:55:12;14.10;99.90
42615;DHT22;28754;47.700;7.924;2022-10-16T04:57:59;14.20;99.90
42615;DHT22;28754;47.700;7.924;2022-10-16T05:00:46;14.20;99.90
42615;DHT22;28754;47.700;7.924;2022-10-16T05:03:33;14.20;99.90
42615;DHT22;28754;47.700;7.924;2022-10-16T05:06:20;14.20;99.90
42615;DHT22;28754;47.700;7.924;2022-10-16T05:09:07;14.20;99.90
42615;DHT22;28754;47.700;7.924;2022-10-16T05:11:54;14.20;99.90
42615;DHT22;28754;47.700;7.924;2022-10-16T05:14:41;14.20;99.90
42615;DHT22;28754;47.700;7.924;2022-10-16T05:17:27;14.20;99.90
42615;DHT22;28754;47.700;7.924;2022-10-16T06:39:02;14.70;99.90
42615;DHT22;28754;47.700;7.924;2022-10-16T06:42:35;14.80;99.90
42615;DHT22;28754;47.700;7.924;2022-10-16T07:05:14;15.40;99.90
42615;DHT22;28754;47.700;7.924;2022-10-16T07:27:18;16.00;99.90
42615;DHT22;28754;47.700;7.924;2022-10-16T07:36:03;17.10;99.90
42615;DHT22;28754;47.700;7.924;2022-10-16T08:25:00;28.30;99.90
42615;DHT22;28754;47.700;7.924;2022-10-16T08:31:49;31.70;99.90
42615;DHT22;28754;47.700;7.924;2022-10-16T08:34:38;35.70;99.90
42615;DHT22;28754;47.700;7.924;2022-10-16T08:37:31;35.60;99.90
42615;DHT22;28754;47.700;7.924;2022-10-16T08:40:23;36.00;99.90
42615;DHT22;28754;47.700;7.924;2022-10-16T08:43:27;36.20;99.90
42615;DHT22;28754;47.700;7.924;2022-10-16T08:46:48;36.10;99.90
42615;DHT22;28754;47.700;7.924;2022-10-16T08:50:12;34.90;99.90
42615;DHT22;28754;47.700;7.924;2022-10-16T08:53:09;33.90;99.90
42615;DHT22;28754;47.700;7.924;2022-10-16T08:56:02;33.30;99.90
42615;DHT22;28754;47.700;7.924;2022-10-16T08:58:57;33.40;99.90
42615;DHT22;28754;47.700;7.924;2022-10-16T09:01:52;34.00;99.90
42615;DHT22;28754;47.700;7.924;2022-10-16T09:12:02;33.70;99.90
42615;DHT22;28754;47.700;7.924;2022-10-16T09:15:40;34.40;99.90
42615;DHT22;28754;47.700;7.924;2022-10-16T09:21:55;36.10;99.90
42615;DHT22;28754;47.700;7.924;2022-10-16T09:24:48;38.40;99.90
42615;DHT22;28754;47.700;7.924;2022-10-16T09:27:58;40.60;99.90
42615;DHT22;28754;47.700;7.924;2022-10-16T09:30:54;37.60;99.90
42615;DHT22;28754;47.700;7.924;2022-10-16T09:34:00;34.90;99.90
42615;DHT22;28754;47.700;7.924;2022-10-16T09:36:55;35.60;99.90
42615;DHT22;28754;47.700;7.924;2022-10-16T09:40:01;38.30;99.90
42615;DHT22;28754;47.700;7.924;2022-10-16T09:46:49;35.10;99.90
42615;DHT22;28754;47.700;7.924;2022-10-16T09:50:19;32.60;99.90
42615;DHT22;28754;47.700;7.924;2022-10-16T09:53:45;30.30;99.90
42615;DHT22;28754;47.700;7.924;2022-10-16T09:57:12;28.80;99.90
42615;DHT22;28754;47.700;7.924;2022-10-16T10:00:16;27.80;99.90
42615;DHT22;28754;47.700;7.924;2022-10-16T10:03:10;26.80;99.90
42615;DHT22;28754;47.700;7.924;2022-10-16T10:06:25;26.50;99.90
42615;DHT22;28754;47.700;7.924;2022-10-16T10:09:32;27.10;99.90
42615;DHT22;28754;47.700;7.924;2022-10-16T10:12:29;30.30;99.90
42615;DHT22;28754;47.700;7.924;2022-10-16T10:15:22;32.60;99.90
42615;DHT22;28754;47.700;7.924;2022-10-16T10:18:20;36.10;99.90
42615;DHT22;28754;47.700;7.924;2022-10-16T10:21:17;40.10;99.90
42615;DHT22;28754;47.700;7.924;2022-10-16T10:24:38;41.50;99.20
42615;DHT22;28754;47.700;7.924;2022-10-16T11:38:33;33.40;99.90
42615;DHT22;28754;47.700;7.924;2022-10-16T11:41:44;33.60;99.90
42615;DHT22;28754;47.700;7.924;2022-10-16T13:31:45;30.60;99.90
42615;DHT22;28754;47.700;7.924;2022-10-16T13:34:49;31.50;99.90
42615;DHT22;28754;47.700;7.924;2022-10-16T13:38:38;31.80;99.90
42615;DHT22;28754;47.700;7.924;2022-10-16T13:41:43;31.60;99.90
42615;DHT22;28754;47.700;7.924;2022-10-16T13:44:49;31.20;99.90
42615;DHT22;28754;47.700;7.924;2022-10-16T13:47:48;32.00;99.90
42615;DHT22;28754;47.700;7.924;2022-10-16T13:51:56;32.20;99.90
42615;DHT22;28754;47.700;7.924;2022-10-16T13:58:10;31.70;99.90
42615;DHT22;28754;47.700;7.924;2022-10-16T14:01:20;31.10;99.90
42615;DHT22;28754;47.700;7.924;2022-10-16T14:04:21;31.00;99.90
42615;DHT22;28754;47.700;7.924;2022-10-16T14:08:33;30.20;99.90
42615;DHT22;28754;47.700;7.924;2022-10-16T14:11:24;29.40;99.90
42615;DHT22;28754;47.700;7.924;2022-10-16T14:14:12;29.00;99.90
42615;DHT22;28754;47.700;7.924;2022-10-16T14:17:00;29.60;99.90
42615;DHT22;28754;47.700;7.924;2022-10-16T14:20:02;29.20;99.90
42615;DHT22;28754;47.700;7.924;2022-10-16T14:23:04;30.20;99.90
42615;DHT22;28754;47.700;7.924;2022-10-16T14:39:39;28.70;99.90
42615;DHT22;28754;47.700;7.924;2022-10-16T15:34:25;24.00;99.90
42615;DHT22;28754;47.700;7.924;2022-10-16T15:46:21;23.20;99.90
42615;DHT22;28754;47.700;7.924;2022-10-16T16:37:51;19.90;99.90
42615;DHT22;28754;47.700;7.924;2022-10-16T16:42:12;19.70;99.90
42615;DHT22;28754;47.700;7.924;2022-10-16T16:44:59;19.60;99.90
42615;DHT22;28754;47.700;7.924;2022-10-16T16:47:46;19.50;99.90
42615;DHT22;28754;47.700;7.924;2022-10-16T16:50:36;19.30;99.90
42615;DHT22;28754;47.700;7.924;2022-10-16T16:53:25;19.00;99.90
42615;DHT22;28754;47.700;7.924;2022-10-16T16:56:17;18.90;99.90
42615;DHT22;28754;47.700;7.924;2022-10-16T17:04:21;18.60;99.90
42615;DHT22;28754;47.700;7.924;2022-10-16T17:13:08;18.20;99.90
42615;DHT22;28754;47.700;7.924;2022-10-16T17:16:05;18.20;99.90
42615;DHT22;28754;47.700;7.924;2022-10-16T17:19:22;18.10;99.90
42615;DHT22;28754;47.700;7.924;2022-10-16T17:22:22;18.00;99.90
42615;DHT22;28754;47.700;7.924;2022-10-16T17:25:11;18.00;99.90
42615;DHT22;28754;47.700;7.924;2022-10-16T17:27:57;17.90;99.90
42615;DHT22;28754;47.700;7.924;2022-10-16T17:30:44;17.90;99.90
42615;DHT22;28754;47.700;7.924;2022-10-16T17:33:31;17.90;99.90
42615;DHT22;28754;47.700;7.924;2022-10-16T17:36:18;17.90;99.90
42615;DHT22;28754;47.700;7.924;2022-10-16T17:39:10;17.80;99.90
42615;DHT22;28754;47.700;7.924;2022-10-16T17:41:58;17.70;99.90
42615;DHT22;28754;47.700;7.924;2022-10-16T17:44:50;17.70;99.90
42615;DHT22;28754;47.700;7.924;2022-10-16T17:49:16;17.70;99.90
42615;DHT22;28754;47.700;7.924;2022-10-16T17:52:06;17.60;99.90
42615;DHT22;28754;47.700;7.924;2022-10-16T17:54:53;17.60;99.90
42615;DHT22;28754;47.700;7.924;2022-10-16T17:57:39;17.60;99.90
42615;DHT22;28754;47.700;7.924;2022-10-16T18:00:27;17.70;99.90
42615;DHT22;28754;47.700;7.924;2022-10-16T18:03:14;17.70;99.90
42615;DHT22;28754;47.700;7.924;2022-10-16T18:06:04;17.80;99.90
42615;DHT22;28754;47.700;7.924;2022-10-16T18:08:52;17.90;99.90
42615;DHT22;28754;47.700;7.924;2022-10-16T18:11:39;17.90;99.90
42615;DHT22;28754;47.700;7.924;2022-10-16T18:14:29;18.00;99.90
42615;DHT22;28754;47.700;7.924;2022-10-16T18:17:17;18.00;99.90
42615;DHT22;28754;47.700;7.924;2022-10-16T18:20:16;18.00;99.90
42615;DHT22;28754;47.700;7.924;2022-10-16T18:23:47;17.90;99.90
42615;DHT22;28754;47.700;7.924;2022-10-16T18:26:40;17.90;99.90
42615;DHT22;28754;47.700;7.924;2022-10-16T18:29:30;17.90;99.90
42615;DHT22;28754;47.700;7.924;2022-10-16T18:32:17;17.80;99.90
42615;DHT22;28754;47.700;7.924;2022-10-16T18:35:04;17.80;99.90
42615;DHT22;28754;47.700;7.924;2022-10-16T18:38:36;17.80;99.90
42615;DHT22;28754;47.700;7.924;2022-10-16T18:41:24;17.90;99.90
42615;DHT22;28754;47.700;7.924;2022-10-16T18:44:12;17.80;99.90
42615;DHT22;28754;47.700;7.924;2022-10-16T18:46:59;17.90;99.90
42615;DHT22;28754;47.700;7.924;2022-10-16T18:49:48;17.70;99.90
42615;DHT22;28754;47.700;7.924;2022-10-16T18:52:35;17.90;99.90
42615;DHT22;28754;47.700;7.924;2022-10-16T18:55:25;17.80;99.90
42615;DHT22;28754;47.700;7.924;2022-10-16T18:58:15;17.70;99.90
42615;DHT22;28754;47.700;7.924;2022-10-16T19:05:27;17.60;99.90
42615;DHT22;28754;47.700;7.924;2022-10-16T19:08:26;17.60;99.90
42615;DHT22;28754;47.700;7.924;2022-10-16T19:11:18;17.60;99.90
42615;DHT22;28754;47.700;7.924;2022-10-16T19:14:07;17.60;99.90
42615;DHT22;28754;47.700;7.924;2022-10-16T19:16:57;17.50;99.90
42615;DHT22;28754;47.700;7.924;2022-10-16T19:19:45;17.60;99.90
42615;DHT22;28754;47.700;7.924;2022-10-16T19:22:33;17.60;99.90
42615;DHT22;28754;47.700;7.924;2022-10-16T19:25:38;17.60;99.90
42615;DHT22;28754;47.700;7.924;2022-10-16T19:28:26;17.50;99.90
42615;DHT22;28754;47.700;7.924;2022-10-16T19:31:15;17.60;99.90
42615;DHT22;28754;47.700;7.924;2022-10-16T19:34:04;17.50;99.90
42615;DHT22;28754;47.700;7.924;2022-10-16T19:36:52;17.50;99.90
42615;DHT22;28754;47.700;7.924;2022-10-16T19:39:39;17.40;99.90
42615;DHT22;28754;47.700;7.924;2022-10-16T19:42:26;17.40;99.90
42615;DHT22;28754;47.700;7.924;2022-10-16T19:45:13;17.40;99.90
42615;DHT22;28754;47.700;7.924;2022-10-16T19:48:00;17.30;99.90
42615;DHT22;28754;47.700;7.924;2022-10-16T19:51:28;17.40;99.90
42615;DHT22;28754;47.700;7.924;2022-10-16T19:54:36;17.40;99.90
42615;DHT22;28754;47.700;7.924;2022-10-16T19:57:25;17.20;99.90
42615;DHT22;28754;47.700;7.924;2022-10-16T20:00:12;17.30;99.90
42615;DHT22;28754;47.700;7.924;2022-10-16T20:02:59;17.30;99.90
42615;DHT22;28754;47.700;7.924;2022-10-16T20:06:17;17.30;99.90
42615;DHT22;28754;47.700;7.924;2022-10-16T20:10:09;17.40;99.90
42615;DHT22;28754;47.700;7.924;2022-10-16T20:13:11;17.40;99.90
42615;DHT22;28754;47.700;7.924;2022-10-16T20:16:09;17.40;99.90
42615;DHT22;28754;47.700;7.924;2022-10-16T20:19:32;17.40;99.90
42615;DHT22;28754;47.700;7.924;2022-10-16T20:23:17;17.30;99.90
42615;DHT22;28754;47.700;7.924;2022-10-16T20:41:03;17.10;99.90
42615;DHT22;28754;47.700;7.924;2022-10-16T22:00:20;16.20;99.90
42615;DHT22;28754;47.700;7.924;2022-10-16T22:03:06;16.30;99.90
42615;DHT22;28754;47.700;7.924;2022-10-16T22:05:53;16.20;99.90
42615;DHT22;28754;47.700;7.924;2022-10-16T22:08:41;16.30;99.90
42615;DHT22;28754;47.700;7.924;2022-10-16T22:11:34;16.20;99.90
42615;DHT22;28754;47.700;7.924;2022-10-16T22:14:22;16.30;99.90
42615;DHT22;28754;47.700;7.924;2022-10-16T22:17:09;16.30;99.90
42615;DHT22;28754;47.700;7.924;2022-10-16T22:19:55;16.30;99.90
42615;DHT22;28754;47.700;7.924;2022-10-16T22:22:42;16.30;99.90
42615;DHT22;28754;47.700;7.924;2022-10-16T22:25:28;16.30;99.90
42615;DHT22;28754;47.700;7.924;2022-10-16T22:28:16;16.30;99.90
42615;DHT22;28754;47.700;7.924;2022-10-16T22:31:08;16.20;99.90
42615;DHT22;28754;47.700;7.924;2022-10-16T22:33:58;16.20;99.90
42615;DHT22;28754;47.700;7.924;2022-10-16T22:36:48;16.10;99.90
42615;DHT22;28754;47.700;7.924;2022-10-16T22:39:35;16.20;99.90
42615;DHT22;28754;47.700;7.924;2022-10-16T22:42:22;16.10;99.90
42615;DHT22;28754;47.700;7.924;2022-10-16T22:45:09;16.10;99.90
42615;DHT22;28754;47.700;7.924;2022-10-16T22:47:55;16.10;99.90
42615;DHT22;28754;47.700;7.924;2022-10-16T22:50:42;16.00;99.90
42615;DHT22;28754;47.700;7.924;2022-10-16T22:53:29;16.00;99.90
42615;DHT22;28754;47.700;7.924;2022-10-16T22:56:19;16.00;99.90
42615;DHT22;28754;47.700;7.924;2022-10-16T22:59:08;15.90;99.90
42615;DHT22;28754;47.700;7.924;2022-10-16T23:01:55;15.90;99.90
42615;DHT22;28754;47.700;7.924;2022-10-16T23:04:41;15.90;99.90
42615;DHT22;28754;47.700;7.924;2022-10-16T23:07:28;15.80;99.90
42615;DHT22;28754;47.700;7.924;2022-10-16T23:10:16;15.80;99.90
42615;DHT22;28754;47.700;7.924;2022-10-16T23:13:04;15.90;99.90
42615;DHT22;28754;47.700;7.924;2022-10-16T23:15:51;15.80;99.90
42615;DHT22;28754;47.700;7.924;2022-10-16T23:18:38;15.80;99.90
42615;DHT22;28754;47.700;7.924;2022-10-16T23:21:25;15.80;99.90
42615;DHT22;28754;47.700;7.924;2022-10-16T23:24:12;15.80;99.90
42615;DHT22;28754;47.700;7.924;2022-10-16T23:26:59;15.80;99.90
42615;DHT22;28754;47.700;7.924;2022-10-16T23:29:45;15.80;99.90
42615;DHT22;28754;47.700;7.924;2022-10-16T23:32:32;15.80;99.90
42615;DHT22;28754;47.700;7.924;2022-10-16T23:35:19;15.80;99.90
42615;DHT22;28754;47.700;7.924;2022-10-16T23:38:06;15.70;99.90
42615;DHT22;28754;47.700;7.924;2022-10-16T23:40:55;15.70;99.90
42615;DHT22;28754;47.700;7.924;2022-10-16T23:43:42;15.70;99.90
42615;DHT22;28754;47.700;7.924;2022-10-16T23:46:29;15.70;99.90
42615;DHT22;28754;47.700;7.924;2022-10-16T23:49:16;15.70;99.90
42615;DHT22;28754;47.700;7.924;2022-10-16T23:52:03;15.60;99.90
42615;DHT22;28754;47.700;7.924;2022-10-16T23:54:50;15.60;99.90
42615;DHT22;28754;47.700;7.924;2022-10-16T23:57:36;15.50;99.90
